createdAt,value
2023-01-29T00:01:56.628Z,5.50
2023-01-29T00:04:24.116Z,5.50
2023-01-29T00:06:50.901Z,5.43
2023-01-29T00:09:18.980Z,5.77
2023-01-29T00:11:45.752Z,5.33
2023-01-29T00:14:12.631Z,5.43
2023-01-29T00:16:39.496Z,5.73
2023-01-29T00:19:06.318Z,6.03
2023-01-29T00:21:33.572Z,5.27
2023-01-29T00:24:00.406Z,5.50
2023-01-29T00:26:27.795Z,5.40
2023-01-29T00:28:55.090Z,5.10
2023-01-29T00:31:24.442Z,5.63
2023-01-29T00:33:51.477Z,5.20
2023-01-29T00:36:20.304Z,5.73
2023-01-29T00:38:55.071Z,5.13
2023-01-29T00:41:38.229Z,6.03
2023-01-29T00:44:25.992Z,5.60
2023-01-29T00:46:53.259Z,5.00
2023-01-29T00:49:20.183Z,4.53
2023-01-29T00:52:09.363Z,4.80
2023-01-29T00:57:04.338Z,5.43
2023-01-29T00:59:31.608Z,5.23
2023-01-29T01:02:17.644Z,5.17
2023-01-29T01:04:44.361Z,5.32
2023-01-29T01:09:56.683Z,6.10
2023-01-29T01:12:23.400Z,5.45
2023-01-29T01:14:50.643Z,4.90
2023-01-29T01:17:18.028Z,5.40
2023-01-29T01:19:45.033Z,5.90
2023-01-29T01:22:12.262Z,5.78
2023-01-29T01:24:39.407Z,6.17
2023-01-29T01:27:06.538Z,5.43
2023-01-29T01:29:33.254Z,5.50
2023-01-29T01:32:00.554Z,5.57
2023-01-29T01:34:28.000Z,5.07
2023-01-29T01:36:58.486Z,6.03
2023-01-29T01:39:25.462Z,5.60
2023-01-29T01:41:53.854Z,5.00
2023-01-29T01:44:38.323Z,5.67
2023-01-29T01:47:05.424Z,5.07
2023-01-29T01:49:32.394Z,4.90
2023-01-29T01:52:01.207Z,5.03
2023-01-29T01:54:32.412Z,5.70
2023-01-29T01:57:09.897Z,5.10
2023-01-29T01:59:38.323Z,5.73
2023-01-29T02:02:25.999Z,5.47
2023-01-29T02:05:12.481Z,4.60
2023-01-29T02:08:04.417Z,4.73
2023-01-29T02:10:38.316Z,5.40
2023-01-29T02:13:07.559Z,4.73
2023-01-29T02:15:34.322Z,5.20
2023-01-29T02:18:01.202Z,5.40
2023-01-29T02:20:32.110Z,5.10
2023-01-29T02:23:17.776Z,4.73
2023-01-29T02:25:56.298Z,5.87
2023-01-29T02:28:37.335Z,5.50
2023-01-29T02:31:14.588Z,6.00
2023-01-29T02:33:56.180Z,5.50
2023-01-29T02:36:38.416Z,5.30
2023-01-29T02:39:15.746Z,5.30
2023-01-29T02:42:07.483Z,5.37
2023-01-29T02:44:37.615Z,5.23
2023-01-29T02:47:19.893Z,6.17
2023-01-29T02:50:08.091Z,5.70
2023-01-29T02:52:37.349Z,5.93
2023-01-29T02:55:18.539Z,5.73
2023-01-29T02:57:49.480Z,5.77
2023-01-29T03:00:20.178Z,4.60
2023-01-29T03:02:58.649Z,5.60
2023-01-29T03:05:38.449Z,5.57
2023-01-29T03:08:10.475Z,5.73
2023-01-29T03:10:38.468Z,5.87
2023-01-29T03:13:15.221Z,5.27
2023-01-29T03:15:51.448Z,6.27
2023-01-29T03:18:22.705Z,6.63
2023-01-29T03:20:58.567Z,6.50
2023-01-29T03:23:38.317Z,6.33
2023-01-29T03:26:24.971Z,6.27
2023-01-29T03:29:11.071Z,5.43
2023-01-29T03:31:56.482Z,6.77
2023-01-29T03:34:34.949Z,5.83
2023-01-29T03:37:01.571Z,6.30
2023-01-29T03:39:29.961Z,5.27
2023-01-29T03:41:59.911Z,5.43
2023-01-29T03:44:29.250Z,6.45
2023-01-29T03:46:59.386Z,6.53
2023-01-29T03:49:38.341Z,6.07
2023-01-29T03:52:17.135Z,6.23
2023-01-29T03:55:02.235Z,5.43
2023-01-29T04:00:32.091Z,6.10
2023-01-29T04:03:22.336Z,5.97
2023-01-29T04:06:01.908Z,5.60
2023-01-29T04:08:32.860Z,6.10
2023-01-29T04:11:05.562Z,5.60
2023-01-29T04:13:34.018Z,5.43
2023-01-29T04:16:02.270Z,6.30
2023-01-29T04:18:32.633Z,6.37
2023-01-29T04:21:01.512Z,5.40
2023-01-29T04:23:28.377Z,5.70
2023-01-29T04:26:06.977Z,5.83
2023-01-29T04:28:38.619Z,5.77
2023-01-29T04:31:12.778Z,5.83
2023-01-29T04:34:04.413Z,5.47
2023-01-29T04:36:38.428Z,5.97
2023-01-29T04:39:38.375Z,5.97
2023-01-29T04:42:30.567Z,4.93
2023-01-29T04:45:21.477Z,5.83
2023-01-29T04:48:20.363Z,5.30
2023-01-29T04:50:59.562Z,5.63
2023-01-29T04:53:33.524Z,5.23
2023-01-29T04:56:29.740Z,5.73
2023-01-29T04:59:03.228Z,5.83
2023-01-29T05:01:33.303Z,6.20
2023-01-29T05:04:05.385Z,5.13
2023-01-29T05:06:32.912Z,5.80
2023-01-29T05:09:01.790Z,7.07
2023-01-29T05:11:31.005Z,5.30
2023-01-29T05:13:58.842Z,5.30
2023-01-29T05:16:38.776Z,6.20
2023-01-29T05:19:05.506Z,5.80
2023-01-29T05:21:33.040Z,6.17
2023-01-29T05:24:14.355Z,6.40
2023-01-29T05:27:02.426Z,6.57
2023-01-29T05:29:29.375Z,6.10
2023-01-29T05:31:56.336Z,5.57
2023-01-29T05:34:23.150Z,6.20
2023-01-29T05:36:50.348Z,6.27
2023-01-29T05:39:17.472Z,6.60
2023-01-29T05:41:44.294Z,6.93
2023-01-29T05:44:11.825Z,6.93
2023-01-29T05:46:39.583Z,6.97
2023-01-29T05:49:06.615Z,6.53
2023-01-29T05:51:33.586Z,6.40
2023-01-29T05:54:07.560Z,6.80
2023-01-29T05:56:34.324Z,6.53
2023-01-29T05:59:01.101Z,6.50
2023-01-29T06:01:27.845Z,6.90
2023-01-29T06:03:54.557Z,6.40
2023-01-29T06:06:21.448Z,6.57
2023-01-29T06:08:48.525Z,6.50
2023-01-29T06:11:16.839Z,6.40
2023-01-29T06:13:43.796Z,5.23
2023-01-29T06:16:12.833Z,6.07
2023-01-29T06:18:40.542Z,5.00
2023-01-29T06:21:12.541Z,5.77
2023-01-29T06:23:40.018Z,5.77
2023-01-29T06:26:12.315Z,6.07
2023-01-29T06:28:39.114Z,5.80
2023-01-29T06:31:37.386Z,5.63
2023-01-29T06:33:53.830Z,5.77
2023-01-29T06:36:24.356Z,5.93
2023-01-29T06:38:51.034Z,6.13
2023-01-29T06:41:19.857Z,6.90
2023-01-29T06:43:47.961Z,5.50
2023-01-29T06:46:14.730Z,7.15
2023-01-29T06:48:41.707Z,5.67
2023-01-29T06:51:09.856Z,5.97
2023-01-29T06:53:38.877Z,5.87
2023-01-29T06:56:06.725Z,5.57
2023-01-29T06:58:33.678Z,7.20
2023-01-29T07:01:19.716Z,7.33
2023-01-29T07:03:54.914Z,7.47
2023-01-29T07:06:22.563Z,7.23
2023-01-29T07:08:49.270Z,6.97
2023-01-29T07:11:16.148Z,6.60
2023-01-29T07:13:43.025Z,7.00
2023-01-29T07:16:10.010Z,6.70
2023-01-29T07:21:07.271Z,6.53
2023-01-29T07:23:35.526Z,6.37
2023-01-29T07:26:06.807Z,6.23
2023-01-29T07:28:38.518Z,5.80
2023-01-29T07:31:06.391Z,6.57
2023-01-29T07:33:33.729Z,5.73
2023-01-29T07:36:07.292Z,6.00
2023-01-29T07:38:34.007Z,6.03
2023-01-29T07:41:03.965Z,7.37
2023-01-29T07:43:31.170Z,5.80
2023-01-29T07:46:03.367Z,6.67
2023-01-29T07:48:30.448Z,6.30
2023-01-29T07:50:57.414Z,7.90
2023-01-29T07:53:24.748Z,6.50
2023-01-29T07:55:51.673Z,6.30
2023-01-29T07:58:18.449Z,6.30
2023-01-29T08:00:45.869Z,6.80
2023-01-29T08:03:16.508Z,5.87
2023-01-29T08:05:44.390Z,5.97
2023-01-29T08:08:14.659Z,6.80
2023-01-29T08:10:42.008Z,5.87
2023-01-29T08:13:09.003Z,7.13
2023-01-29T08:18:04.800Z,6.50
2023-01-29T08:20:34.866Z,6.53
2023-01-29T08:23:07.981Z,6.50
2023-01-29T08:25:35.851Z,6.90
2023-01-29T08:28:03.531Z,5.65
2023-01-29T08:30:32.935Z,6.03
2023-01-29T08:32:59.804Z,6.70
2023-01-29T08:35:27.321Z,6.73
2023-01-29T08:37:59.849Z,6.95
2023-01-29T08:40:35.240Z,6.38
2023-01-29T08:43:08.705Z,6.63
2023-01-29T08:45:38.508Z,7.28
2023-01-29T08:48:07.963Z,7.20
2023-01-29T08:50:35.226Z,6.28
2023-01-29T08:53:04.541Z,6.20
2023-01-29T08:55:31.272Z,5.85
2023-01-29T08:57:57.957Z,5.25
2023-01-29T09:00:24.941Z,6.05
2023-01-29T09:02:51.749Z,5.85
2023-01-29T09:05:18.882Z,6.43
2023-01-29T09:07:45.831Z,5.80
2023-01-29T09:10:13.574Z,5.40
2023-01-29T09:12:40.396Z,6.10
2023-01-29T09:15:07.679Z,5.75
2023-01-29T09:17:34.557Z,5.25
2023-01-29T09:20:01.357Z,5.13
2023-01-29T09:22:28.466Z,5.50
2023-01-29T09:24:55.113Z,5.00
2023-01-29T09:27:21.777Z,5.40
2023-01-29T09:29:48.407Z,5.65
2023-01-29T09:32:16.837Z,5.35
2023-01-29T09:34:46.373Z,5.35
2023-01-29T09:37:13.143Z,5.93
2023-01-29T09:39:39.760Z,5.50
2023-01-29T09:42:15.126Z,6.00
2023-01-29T09:45:12.848Z,5.40
2023-01-29T09:47:42.612Z,4.72
2023-01-29T09:50:23.910Z,4.50
2023-01-29T09:52:57.339Z,5.35
2023-01-29T09:55:31.034Z,4.75
2023-01-29T09:58:01.035Z,5.70
2023-01-29T10:00:34.998Z,5.80
2023-01-29T10:03:20.572Z,4.32
2023-01-29T10:05:51.616Z,5.78
2023-01-29T10:08:37.573Z,6.28
2023-01-29T10:11:31.377Z,5.40
2023-01-29T10:14:31.487Z,6.10
2023-01-29T10:17:07.027Z,5.78
2023-01-29T10:19:37.613Z,5.22
2023-01-29T10:22:23.070Z,5.35
2023-01-29T10:25:25.673Z,5.35
2023-01-29T10:27:56.485Z,5.50
2023-01-29T10:30:35.009Z,5.78
2023-01-29T10:33:07.478Z,6.50
2023-01-29T10:35:38.563Z,5.03
2023-01-29T10:38:32.986Z,5.68
2023-01-29T10:41:11.534Z,6.20
2023-01-29T10:43:51.479Z,6.15
2023-01-29T10:46:33.340Z,6.07
2023-01-29T10:49:18.525Z,5.97
2023-01-29T10:52:00.255Z,6.15
2023-01-29T10:54:38.707Z,6.13
2023-01-29T10:57:34.442Z,5.70
2023-01-29T11:00:13.481Z,6.05
2023-01-29T11:02:48.757Z,6.00
2023-01-29T11:05:38.638Z,5.82
2023-01-29T11:08:25.245Z,6.13
2023-01-29T11:11:10.230Z,5.97
2023-01-29T11:13:38.621Z,5.35
2023-01-29T11:16:06.417Z,5.80
2023-01-29T11:18:37.890Z,5.53
2023-01-29T11:21:05.180Z,6.00
2023-01-29T11:23:33.835Z,5.65
2023-01-29T11:26:01.519Z,5.78
2023-01-29T11:28:37.633Z,5.60
2023-01-29T11:31:15.708Z,6.13
2023-01-29T11:33:42.873Z,5.85
2023-01-29T11:36:38.817Z,6.05
2023-01-29T11:39:15.262Z,6.30
2023-01-29T11:42:03.405Z,6.38
2023-01-29T11:44:33.396Z,5.78
2023-01-29T11:47:11.521Z,5.65
2023-01-29T11:49:39.643Z,5.85
2023-01-29T11:52:11.553Z,5.63
2023-01-29T11:55:05.917Z,6.32
2023-01-29T12:00:13.050Z,5.60
2023-01-29T12:02:45.826Z,5.70
2023-01-29T12:05:24.336Z,5.90
2023-01-29T12:07:55.317Z,5.53
2023-01-29T12:10:38.762Z,6.20
2023-01-29T12:13:07.680Z,6.30
2023-01-29T12:15:34.446Z,6.38
2023-01-29T12:18:04.178Z,6.30
2023-01-29T12:20:38.564Z,6.43
2023-01-29T12:23:23.135Z,6.28
2023-01-29T12:26:08.689Z,5.85
2023-01-29T12:28:39.025Z,6.28
2023-01-29T12:31:20.785Z,6.13
2023-01-29T12:34:16.055Z,6.57
2023-01-29T12:36:53.326Z,6.32
2023-01-29T12:39:24.275Z,6.57
2023-01-29T12:42:05.363Z,5.60
2023-01-29T12:44:41.304Z,6.70
2023-01-29T12:47:17.157Z,6.32
2023-01-29T12:49:47.054Z,6.65
2023-01-29T12:52:21.831Z,6.70
2023-01-29T12:54:56.566Z,6.38
2023-01-29T12:57:38.761Z,6.45
2023-01-29T13:00:29.045Z,6.35
2023-01-29T13:03:00.147Z,6.07
2023-01-29T13:05:33.343Z,6.72
2023-01-29T13:08:14.681Z,6.70
2023-01-29T13:10:46.811Z,6.15
2023-01-29T13:13:30.674Z,6.60
2023-01-29T13:16:00.770Z,6.40
2023-01-29T13:18:38.924Z,6.75
2023-01-29T13:21:06.022Z,6.65
2023-01-29T13:23:38.971Z,5.60
2023-01-29T13:26:08.260Z,6.20
2023-01-29T13:28:35.158Z,5.95
2023-01-29T13:31:20.510Z,5.97
2023-01-29T13:34:20.575Z,6.50
2023-01-29T13:36:51.938Z,6.22
2023-01-29T13:39:30.295Z,6.43
2023-01-29T13:41:59.439Z,5.40
2023-01-29T13:47:07.915Z,5.97
2023-01-29T13:49:38.889Z,5.85
2023-01-29T13:52:27.431Z,6.78
2023-01-29T13:55:01.130Z,5.75
2023-01-29T13:57:38.768Z,6.20
2023-01-29T14:00:08.104Z,6.40
2023-01-29T14:02:34.933Z,5.38
2023-01-29T14:05:30.808Z,6.60
2023-01-29T14:08:24.099Z,6.13
2023-01-29T14:11:13.472Z,6.22
2023-01-29T14:13:42.092Z,6.15
2023-01-29T14:16:17.691Z,6.50
2023-01-29T14:19:07.928Z,6.30
2023-01-29T14:21:38.684Z,6.55
2023-01-29T14:24:17.123Z,6.30
2023-01-29T14:26:46.220Z,6.97
2023-01-29T14:29:14.491Z,6.85
2023-01-29T14:31:48.293Z,7.32
2023-01-29T14:34:26.970Z,7.88
2023-01-29T14:37:04.723Z,6.55
2023-01-29T14:39:38.735Z,6.28
2023-01-29T14:42:19.074Z,6.60
2023-01-29T14:44:48.602Z,7.05
2023-01-29T14:47:33.593Z,7.88
2023-01-29T14:50:06.745Z,7.40
2023-01-29T14:52:38.683Z,6.88
2023-01-29T14:58:04.913Z,7.40
2023-01-29T15:03:12.406Z,6.63
2023-01-29T15:05:40.487Z,7.07
2023-01-29T15:08:13.539Z,7.47
2023-01-29T15:10:45.526Z,7.25
2023-01-29T15:13:26.355Z,7.10
2023-01-29T15:15:58.130Z,6.88
2023-01-29T15:18:40.290Z,6.63
2023-01-29T15:21:13.820Z,7.50
2023-01-29T15:23:41.028Z,7.63
2023-01-29T15:26:19.861Z,7.97
2023-01-29T15:29:04.278Z,7.07
2023-01-29T15:31:32.429Z,7.18
2023-01-29T15:34:07.981Z,8.65
2023-01-29T15:39:10.444Z,7.88
2023-01-29T15:44:04.021Z,7.93
2023-01-29T15:46:38.701Z,7.00
2023-01-29T15:49:16.608Z,7.30
2023-01-29T15:51:43.803Z,7.20
2023-01-29T15:54:15.988Z,6.95
2023-01-29T15:56:52.643Z,7.00
2023-01-29T15:59:26.268Z,6.83
2023-01-29T16:01:54.306Z,6.78
2023-01-29T16:04:29.127Z,6.53
2023-01-29T16:06:58.196Z,6.95
2023-01-29T16:09:28.657Z,6.75
2023-01-29T16:11:58.929Z,6.50
2023-01-29T16:14:26.917Z,6.72
2023-01-29T16:16:54.142Z,6.35
2023-01-29T16:19:23.531Z,6.55
2023-01-29T16:22:02.065Z,7.93
2023-01-29T16:24:31.417Z,7.10
2023-01-29T16:27:01.235Z,6.05
2023-01-29T16:29:33.198Z,7.80
2023-01-29T16:32:02.835Z,7.07
2023-01-29T16:34:35.268Z,7.23
2023-01-29T16:37:05.344Z,7.60
2023-01-29T16:39:39.006Z,7.22
2023-01-29T16:42:20.367Z,6.90
2023-01-29T16:44:50.404Z,5.93
2023-01-29T16:47:39.224Z,7.77
2023-01-29T16:50:43.382Z,7.13
2023-01-29T16:53:23.658Z,7.03
2023-01-29T16:55:52.817Z,7.68
2023-01-29T16:58:23.191Z,7.97
2023-01-29T17:00:56.239Z,7.23
2023-01-29T17:03:30.338Z,7.83
2023-01-29T17:06:08.542Z,8.13
2023-01-29T17:08:35.556Z,7.93
2023-01-29T17:11:03.300Z,7.97
2023-01-29T17:13:37.836Z,7.40
2023-01-29T17:16:29.441Z,8.88
2023-01-29T17:18:56.640Z,9.73
2023-01-29T17:21:24.335Z,8.43
2023-01-29T17:23:52.282Z,8.40
2023-01-29T17:26:20.476Z,7.50
2023-01-29T17:28:53.274Z,8.67
2023-01-29T17:31:20.556Z,12.20
2023-01-29T17:33:48.241Z,11.93
2023-01-29T17:36:17.453Z,8.60
2023-01-29T17:38:44.857Z,9.17
2023-01-29T17:41:24.071Z,9.97
2023-01-29T17:43:50.835Z,9.00
2023-01-29T17:46:18.429Z,8.50
2023-01-29T17:48:48.061Z,9.30
2023-01-29T17:51:17.245Z,11.27
2023-01-29T17:53:46.595Z,10.27
2023-01-29T17:56:21.541Z,9.77
2023-01-29T17:58:48.257Z,9.50
2023-01-29T18:01:15.316Z,10.00
2023-01-29T18:03:42.040Z,10.23
2023-01-29T18:06:09.871Z,9.40
2023-01-29T18:08:38.781Z,8.77
2023-01-29T18:11:05.865Z,9.77
2023-01-29T18:13:35.536Z,11.03
2023-01-29T18:16:02.624Z,11.47
2023-01-29T18:18:29.520Z,10.77
2023-01-29T18:20:56.319Z,10.93
2023-01-29T18:23:23.286Z,12.00
2023-01-29T18:25:50.014Z,11.70
2023-01-29T18:28:18.185Z,11.83
2023-01-29T18:30:48.084Z,12.93
2023-01-29T18:33:16.353Z,11.70
2023-01-29T18:35:48.398Z,12.83
2023-01-29T18:38:18.880Z,12.60
2023-01-29T18:40:45.658Z,12.93
2023-01-29T18:43:14.857Z,13.63
2023-01-29T18:45:41.652Z,14.17
2023-01-29T18:48:09.429Z,13.90
2023-01-29T18:53:04.590Z,13.03
2023-01-29T18:55:31.499Z,14.53
2023-01-29T18:58:26.285Z,13.00
2023-01-29T19:00:47.897Z,14.57
2023-01-29T19:03:14.788Z,13.30
2023-01-29T19:05:41.757Z,12.83
2023-01-29T19:08:08.554Z,14.57
2023-01-29T19:10:35.582Z,15.10
2023-01-29T19:13:02.416Z,14.03
2023-01-29T19:15:29.444Z,14.27
2023-01-29T19:17:57.013Z,12.60
2023-01-29T19:20:23.818Z,12.90
2023-01-29T19:22:51.551Z,14.17
2023-01-29T19:25:19.784Z,13.47
2023-01-29T19:27:49.938Z,12.77
2023-01-29T19:30:20.046Z,14.07
2023-01-29T19:32:49.461Z,12.63
2023-01-29T19:35:16.603Z,12.40
2023-01-29T19:37:44.315Z,13.70
2023-01-29T19:40:11.662Z,12.67
2023-01-29T19:42:38.547Z,13.27
2023-01-29T19:45:11.916Z,14.97
2023-01-29T19:47:45.124Z,15.30
2023-01-29T19:50:12.509Z,13.07
2023-01-29T19:52:50.608Z,14.57
2023-01-29T19:55:19.309Z,14.30
2023-01-29T19:57:47.090Z,12.73
2023-01-29T20:00:15.943Z,13.67
2023-01-29T20:02:42.733Z,13.17
2023-01-29T20:05:12.475Z,13.93
2023-01-29T20:07:50.089Z,13.00
2023-01-29T20:10:18.065Z,13.30
2023-01-29T20:12:46.273Z,13.33
2023-01-29T20:15:14.552Z,12.90
2023-01-29T20:17:42.031Z,13.20
2023-01-29T20:20:09.828Z,12.33
2023-01-29T20:25:03.344Z,12.33
2023-01-29T20:27:30.159Z,13.03
2023-01-29T20:29:57.592Z,13.90
2023-01-29T20:32:24.627Z,14.47
2023-01-29T20:34:53.875Z,13.83
2023-01-29T20:37:20.746Z,12.37
2023-01-29T20:39:47.664Z,14.10
2023-01-29T20:42:14.640Z,13.93
2023-01-29T20:44:42.150Z,13.33
2023-01-29T20:47:09.997Z,13.87
2023-01-29T20:52:04.255Z,14.87
2023-01-29T20:54:33.526Z,13.67
2023-01-29T20:57:00.397Z,13.67
2023-01-29T20:59:29.329Z,13.73
2023-01-29T21:01:56.182Z,15.17
2023-01-29T21:04:23.100Z,14.80
2023-01-29T21:06:49.830Z,13.93
2023-01-29T21:09:16.656Z,15.40
2023-01-29T21:11:45.254Z,15.30
2023-01-29T21:14:13.997Z,15.00
2023-01-29T21:16:41.004Z,15.27
2023-01-29T21:19:07.822Z,14.27
2023-01-29T21:21:34.846Z,15.33
2023-01-29T21:24:04.759Z,16.00
2023-01-29T21:26:31.948Z,15.90
2023-01-29T21:29:01.534Z,12.70
2023-01-29T21:31:28.300Z,14.77
2023-01-29T21:33:56.162Z,12.53
2023-01-29T21:36:25.219Z,15.00
2023-01-29T21:38:52.089Z,14.97
2023-01-29T21:41:39.012Z,14.40
2023-01-29T21:44:05.837Z,14.07
2023-01-29T21:46:32.765Z,15.30
2023-01-29T21:49:02.392Z,13.03
2023-01-29T21:51:29.229Z,8.37
2023-01-29T21:53:56.348Z,14.07
2023-01-29T21:56:23.195Z,13.33
2023-01-29T21:58:50.210Z,12.83
2023-01-29T22:01:36.532Z,13.23
2023-01-29T22:04:04.722Z,14.00
2023-01-29T22:06:31.443Z,13.27
2023-01-29T22:08:58.236Z,12.93
2023-01-29T22:11:25.047Z,13.60
2023-01-29T22:13:51.786Z,11.63
2023-01-29T22:16:18.584Z,11.83
2023-01-29T22:18:45.288Z,13.40
2023-01-29T22:21:12.088Z,14.93
2023-01-29T22:23:39.564Z,14.27
2023-01-29T22:26:07.477Z,14.40
2023-01-29T22:31:05.193Z,13.77
2023-01-29T22:33:33.367Z,14.07
2023-01-29T22:36:00.764Z,15.10
2023-01-29T22:38:27.776Z,14.47
2023-01-29T22:40:55.957Z,13.10
2023-01-29T22:43:24.761Z,13.17
2023-01-29T22:45:51.990Z,12.67
2023-01-29T22:48:19.265Z,12.90
2023-01-29T22:50:53.934Z,12.87
2023-01-29T22:53:24.312Z,13.63
2023-01-29T22:55:56.012Z,12.77
2023-01-29T22:58:26.231Z,13.10
2023-01-29T23:00:53.158Z,13.23
2023-01-29T23:03:20.096Z,12.77
2023-01-29T23:05:46.969Z,11.57
2023-01-29T23:08:13.978Z,12.90
2023-01-29T23:10:40.748Z,11.77
2023-01-29T23:13:07.538Z,12.57
2023-01-29T23:15:34.358Z,10.70
2023-01-29T23:18:01.146Z,12.23
2023-01-29T23:20:27.917Z,11.87
2023-01-29T23:22:54.906Z,12.87
2023-01-29T23:25:38.901Z,12.43
2023-01-29T23:28:05.638Z,12.10
2023-01-29T23:30:32.343Z,13.10
2023-01-29T23:32:59.208Z,12.87
2023-01-29T23:35:28.873Z,12.07
2023-01-29T23:37:56.229Z,12.90
2023-01-29T23:40:23.229Z,11.40
2023-01-29T23:42:53.169Z,10.03
2023-01-29T23:45:23.536Z,12.17
2023-01-29T23:47:50.449Z,12.33
2023-01-29T23:50:17.730Z,12.67
2023-01-29T23:52:44.603Z,13.97
2023-01-29T23:55:11.267Z,13.20
2023-01-29T23:57:38.917Z,12.17
